Time;durP1;ratioP1;P1;durP2;ratioP2;P2;SDS_P1;SDS_P2;PMS_P1;PMS_P2;Temp;Humidity;BMP_temperature;BMP_pressure;BME280_temperature;BME280_humidity;BME280_pressure;Samples;Min_cycle;Max_cycle;Signal;HPM_P1;HPM_P2
2023/12/30 00:02:14;;;;;;;3.08;2.08;;;;;;;-8.91;65.43;95480.81;6228221;28;20414;-67
2023/12/30 00:05:25;;;;;;;3.88;2.92;;;;;;;-9.04;65.60;95480.09;6245611;28;20041;-68
2023/12/30 00:08:30;;;;;;;2.58;1.60;;;;;;;-8.77;65.10;95479.78;6245107;28;20046;-67
2023/12/30 00:11:33;;;;;;;2.33;2.10;;;;;;;-8.54;64.22;95487.16;6227468;28;20053;-67
2023/12/30 00:14:39;;;;;;;2.80;2.15;;;;;;;-8.82;65.04;95497.69;6244134;28;20132;-66
2023/12/30 00:17:40;;;;;;;2.85;2.13;;;;;;;-8.84;65.02;95490.06;6243452;28;20049;-67
2023/12/30 00:20:45;;;;;;;1.80;1.70;;;;;;;-8.77;65.26;95484.88;6260111;28;20045;-68
2023/12/30 00:23:47;;;;;;;3.33;2.35;;;;;;;-8.82;65.50;95495.16;6244991;28;20045;-68
2023/12/30 00:26:51;;;;;;;3.78;2.20;;;;;;;-8.68;64.68;95492.44;6227612;28;20124;-68
2023/12/30 00:29:52;;;;;;;2.42;1.83;;;;;;;-8.81;65.56;95484.91;6244493;28;20033;-66
2023/12/30 00:32:57;;;;;;;3.92;1.98;;;;;;;-8.60;65.29;95494.03;6244643;28;20048;-67
2023/12/30 00:36:04;;;;;;;1.60;1.27;;;;;;;-8.58;64.77;95486.34;6244575;28;20041;-67
2023/12/30 00:39:08;;;;;;;3.47;2.65;;;;;;;-8.72;65.45;95488.22;6244500;28;20042;-67
2023/12/30 00:42:11;;;;;;;3.10;1.88;;;;;;;-8.66;65.05;95489.00;6244282;28;20072;-68
2023/12/30 00:45:15;;;;;;;;;;;;;;;-8.66;65.42;95489.00;6244897;28;20044;-67
2023/12/30 00:48:23;;;;;;;2.65;1.65;;;;;;;-8.73;65.03;95487.38;6244278;28;20008;-67
2023/12/30 00:51:27;;;;;;;2.72;2.20;;;;;;;-8.91;65.70;95477.41;6244340;28;20892;-67
2023/12/30 00:54:34;;;;;;;2.78;2.28;;;;;;;-8.72;65.71;95490.78;6243977;28;20133;-68
2023/12/30 00:57:43;;;;;;;2.40;2.03;;;;;;;-8.65;65.71;95493.22;6227108;28;20041;-66
2023/12/30 01:00:50;;;;;;;1.90;1.80;;;;;;;-8.49;65.30;95496.44;6243964;28;20049;-66
2023/12/30 01:03:54;;;;;;;2.40;1.65;;;;;;;-8.54;65.92;95497.38;6244182;28;20038;-67
2023/12/30 01:06:56;;;;;;;1.45;1.35;;;;;;;-8.38;65.77;95499.66;6243312;28;20522;-67
2023/12/30 01:09:57;;;;;;;2.47;2.28;;;;;;;-8.27;65.47;95496.09;6226464;28;20045;-68
2023/12/30 01:12:59;;;;;;;2.03;1.58;;;;;;;-8.32;65.76;95498.75;6243430;28;20049;-66
2023/12/30 01:16:05;;;;;;;2.30;1.83;;;;;;;-8.16;65.71;95495.09;6243731;28;20538;-67
2023/12/30 01:19:09;;;;;;;2.00;1.90;;;;;;;-8.22;65.52;95505.38;6244023;28;20050;-66
2023/12/30 01:22:11;;;;;;;3.35;2.63;;;;;;;-8.15;65.97;95507.00;6243160;28;20054;-67
2023/12/30 01:25:16;;;;;;;2.35;2.15;;;;;;;-8.33;66.79;95516.59;6243383;28;20047;-67
2023/12/30 01:28:22;;;;;;;3.47;2.20;;;;;;;-8.35;66.97;95508.97;6247710;28;20172;-68
2023/12/30 01:31:26;;;;;;;3.33;2.25;;;;;;;-8.24;67.01;95513.94;6248222;28;20048;-66
2023/12/30 01:34:30;;;;;;;4.00;2.38;;;;;;;-8.19;66.88;95515.56;6248819;28;20068;-67
2023/12/30 01:37:31;;;;;;;4.88;2.40;;;;;;;-8.28;66.67;95510.56;6248718;28;20042;-66
2023/12/30 01:40:35;;;;;;;2.28;1.83;;;;;;;-8.25;66.35;95515.63;6248332;28;20052;-66
2023/12/30 01:43:41;;;;;;;1.52;1.42;;;;;;;-8.21;66.66;95519.84;6231260;28;20045;-67
2023/12/30 01:46:43;;;;;;;;;;;;;;;-8.02;66.01;95511.91;6247556;28;20176;-66
2023/12/30 01:49:50;;;;;;;1.58;1.48;;;;;;;-8.13;66.26;95515.47;6248715;28;19917;-67
2023/12/30 01:53:00;;;;;;;3.08;2.45;;;;;;;-8.13;65.73;95515.47;6248006;28;20041;-67
2023/12/30 01:56:06;;;;;;;2.78;1.92;;;;;;;-8.03;65.27;95505.16;6248177;28;20045;-66
2023/12/30 01:59:13;;;;;;;2.58;2.08;;;;;;;-8.07;64.94;95508.59;6248024;28;20057;-66
2023/12/30 02:02:22;;;;;;;6.13;3.55;;;;;;;-7.92;64.76;95508.38;6248069;28;20049;-66
2023/12/30 02:05:27;;;;;;;3.03;2.53;;;;;;;-7.89;64.86;95521.09;6247601;28;20050;-66
2023/12/30 02:08:34;;;;;;;2.63;1.75;;;;;;;-7.78;63.88;95516.69;6248299;28;20041;-67
2023/12/30 02:11:39;;;;;;;3.08;1.65;;;;;;;-7.94;64.36;95512.66;6247600;28;20131;-68
2023/12/30 02:14:42;;;;;;;2.30;2.03;;;;;;;-8.07;65.21;95511.13;6246958;28;20049;-67
2023/12/30 02:17:45;;;;;;;1.77;1.48;;;;;;;-7.93;64.66;95516.88;6247173;28;20048;-66
2023/12/30 02:20:47;;;;;;;5.50;3.10;;;;;;;-8.03;65.08;95525.56;6247163;28;20152;-67
2023/12/30 02:23:54;;;;;;;2.78;1.92;;;;;;;-7.86;64.37;95523.59;6246489;28;20188;-68
2023/12/30 02:27:03;;;;;;;3.13;1.85;;;;;;;-8.03;64.92;95518.75;6247778;28;20534;-68
2023/12/30 02:30:07;;;;;;;3.17;2.70;;;;;;;-8.17;65.14;95531.69;6247629;28;20046;-67
2023/12/30 02:33:10;;;;;;;;;;;;;;;-7.95;64.87;95531.41;6247811;28;20499;-67
2023/12/30 02:36:14;;;;;;;3.05;1.80;;;;;;;-7.83;64.70;95528.66;6246706;28;19927;-67
2023/12/30 02:39:15;;;;;;;3.50;1.88;;;;;;;-8.01;64.86;95513.59;6228680;28;20039;-68
2023/12/30 02:42:20;;;;;;;2.25;1.92;;;;;;;-7.72;64.12;95531.06;6246780;28;20064;-68
2023/12/30 02:45:22;;;;;;;6.88;3.78;;;;;;;-7.74;64.49;95541.28;6246718;28;20045;-66
2023/12/30 02:48:26;;;;;;;4.30;2.75;;;;;;;-7.68;64.56;95533.53;6246425;28;20045;-67
2023/12/30 02:51:30;;;;;;;3.20;2.30;;;;;;;-7.62;64.46;95541.97;6246930;28;20049;-66
2023/12/30 02:54:35;;;;;;;4.22;2.22;;;;;;;-7.62;64.61;95535.13;6245868;28;20050;-67
2023/12/30 02:57:39;;;;;;;5.22;3.45;;;;;;;-7.78;64.91;95541.38;6246848;28;20041;-67
2023/12/30 03:00:41;;;;;;;2.55;1.67;;;;;;;-7.68;65.35;95542.91;6245427;28;20546;-67
2023/12/30 03:03:47;;;;;;;4.43;3.03;;;;;;;-7.66;65.08;95537.78;6246719;28;20041;-67
2023/12/30 03:06:51;;;;;;;3.30;2.20;;;;;;;-7.52;64.42;95533.31;6246987;28;20041;-67
2023/12/30 03:09:55;;;;;;;2.78;2.15;;;;;;;-7.45;64.47;95550.19;6247015;28;20045;-67
2023/12/30 03:13:01;;;;;;;6.93;3.70;;;;;;;-7.49;64.95;95538.34;6245659;28;20522;-68
2023/12/30 03:16:06;;;;;;;3.72;2.40;;;;;;;-7.49;64.83;95546.03;6246127;28;20042;-67
2023/12/30 03:19:09;;;;;;;2.90;2.60;;;;;;;-7.43;65.26;95548.47;6246371;28;20507;-67
2023/12/30 03:22:14;;;;;;;4.57;2.92;;;;;;;-7.62;65.73;95534.31;6245978;28;20049;-68
2023/12/30 03:25:17;;;;;;;3.53;2.67;;;;;;;-7.57;65.80;95541.03;6245540;28;20054;-68
2023/12/30 03:28:19;;;;;;;4.95;3.38;;;;;;;-7.43;65.62;95548.47;6245606;28;20045;-68
2023/12/30 03:31:29;;;;;;;4.43;3.13;;;;;;;-7.44;66.20;95536.59;6246016;28;20037;-67
2023/12/30 03:34:30;;;;;;;3.28;2.47;;;;;;;-7.29;65.54;95546.53;6245506;28;20049;-66
2023/12/30 03:37:31;;;;;;;2.70;2.42;;;;;;;-7.20;64.84;95550.66;6245459;28;20057;-66
2023/12/30 03:40:33;;;;;;;1.58;1.42;;;;;;;-7.26;65.67;95559.25;6245151;28;20053;-66
2023/12/30 03:43:37;;;;;;;2.85;2.05;;;;;;;-7.24;64.42;95549.03;6245320;28;20069;-67
2023/12/30 03:46:41;;;;;;;3.45;2.50;;;;;;;-7.03;63.41;95560.59;6245823;28;20045;-67
2023/12/30 03:49:42;;;;;;;2.60;2.30;;;;;;;-7.30;64.27;95528.69;6244845;28;20151;-67
2023/12/30 03:52:48;;;;;;;2.78;1.73;;;;;;;-7.20;64.00;95560.88;6252273;28;20047;-67
2023/12/30 03:55:53;;;;;;;4.70;3.42;;;;;;;-7.35;65.00;95561.97;6269291;28;20048;-66
2023/12/30 03:58:56;;;;;;;5.43;2.97;;;;;;;-7.44;65.13;95572.34;6270032;28;20131;-68
2023/12/30 04:02:00;;;;;;;4.10;3.28;;;;;;;-7.48;65.13;95568.97;6269888;28;20048;-67
2023/12/30 04:05:02;;;;;;;;;;;;;;;-7.33;65.48;95574.72;6270253;28;20037;-67
2023/12/30 04:08:04;;;;;;;5.45;3.20;;;;;;;-7.51;65.39;95571.56;6269126;28;20310;-68
2023/12/30 04:11:08;;;;;;;5.85;4.10;;;;;;;-7.68;66.10;95568.44;6270020;28;20419;-68
2023/12/30 04:14:14;;;;;;;4.40;3.22;;;;;;;-7.65;66.22;95572.66;6270135;28;20044;-66
2023/12/30 04:17:16;;;;;;;4.20;2.88;;;;;;;-7.51;65.02;95586.06;6268707;28;20044;-66
2023/12/30 04:20:20;;;;;;;3.35;2.25;;;;;;;-7.55;65.46;95566.56;6251100;28;20184;-67
2023/12/30 04:23:21;;;;;;;4.28;2.20;;;;;;;-7.63;65.43;95576.03;6269549;28;20042;-66
2023/12/30 04:26:25;;;;;;;2.47;2.13;;;;;;;-7.58;64.82;95564.91;6269501;28;20495;-68
2023/12/30 04:29:31;;;;;;;3.08;2.72;;;;;;;-7.71;64.41;95581.25;6269547;28;20041;-66
2023/12/30 04:32:40;;;;;;;3.92;2.25;;;;;;;-7.76;64.22;95580.47;6269545;28;20047;-67
2023/12/30 04:35:41;;;;;;;2.00;1.80;;;;;;;-7.83;64.34;95582.28;6269054;28;20049;-67
2023/12/30 04:38:45;;;;;;;;;;;;;;;-7.85;64.65;95572.94;6269599;28;20045;-67
2023/12/30 04:41:49;;;;;;;1.77;1.67;;;;;;;-7.96;64.03;95571.38;6269185;28;20429;-67
2023/12/30 04:44:54;;;;;;;1.55;1.38;;;;;;;-8.08;64.29;95589.41;6269167;28;20147;-68
2023/12/30 04:47:58;;;;;;;3.17;2.15;;;;;;;-8.02;64.11;95584.22;6268722;28;20048;-67
2023/12/30 04:51:01;;;;;;;1.55;1.45;;;;;;;-8.04;63.99;95590.22;6269003;28;20075;-68
2023/12/30 04:54:04;;;;;;;2.42;2.17;;;;;;;-8.06;64.00;95562.19;6251258;28;20076;-67
2023/12/30 04:57:07;;;;;;;4.82;3.38;;;;;;;-7.94;63.72;95591.78;6244235;28;20175;-67
2023/12/30 05:00:12;;;;;;;1.23;1.10;;;;;;;-7.98;63.65;95572.25;6244439;28;20038;-68
2023/12/30 05:03:19;;;;;;;2.53;2.00;;;;;;;-7.97;63.84;95581.63;6242868;28;20045;-68
2023/12/30 05:06:21;;;;;;;3.15;2.35;;;;;;;-8.01;63.37;95574.84;6244111;28;20067;-68
2023/12/30 05:09:23;;;;;;;1.97;1.87;;;;;;;-8.02;63.78;95588.50;6244031;28;20033;-67
2023/12/30 05:12:25;;;;;;;2.83;2.40;;;;;;;-8.14;63.90;95605.66;6243161;28;20454;-67
2023/12/30 05:15:27;;;;;;;1.67;1.58;;;;;;;-8.10;63.68;95582.66;6244144;28;20414;-68
2023/12/30 05:18:30;;;;;;;6.95;2.95;;;;;;;-7.99;63.48;95603.78;6243356;28;20049;-67
2023/12/30 05:21:37;;;;;;;2.63;2.30;;;;;;;-7.86;63.11;95600.19;6243646;28;20499;-67
2023/12/30 05:24:40;;;;;;;3.20;2.00;;;;;;;-7.76;62.94;95591.53;6243634;28;20057;-67
2023/12/30 05:27:42;;;;;;;2.83;2.20;;;;;;;-7.80;62.97;95604.38;6243032;28;20430;-68
2023/12/30 05:30:45;;;;;;;;;;;;;;;-7.68;62.54;95602.47;6244151;28;20041;-68
2023/12/30 05:33:47;;;;;;;5.00;2.70;;;;;;;-7.81;62.87;95603.53;6242164;28;19928;-67
2023/12/30 05:36:51;;;;;;;4.80;3.33;;;;;;;-7.83;62.31;95589.94;6242962;28;20057;-67
2023/12/30 05:39:52;;;;;;;5.65;3.15;;;;;;;-7.94;62.99;95604.56;6243682;28;20637;-67
2023/12/30 05:42:54;;;;;;;4.25;2.30;;;;;;;-7.78;61.61;95603.50;6243195;28;20068;-66
2023/12/30 05:45:58;;;;;;;1.75;1.25;;;;;;;-7.85;62.34;95601.88;6243989;28;20143;-67
2023/12/30 05:49:01;;;;;;;4.93;2.53;;;;;;;-7.94;62.39;95617.31;6243584;28;20409;-69
2023/12/30 05:52:10;;;;;;;3.38;2.67;;;;;;;-8.00;63.01;95608.03;6244141;28;20059;-68
2023/12/30 05:55:15;;;;;;;3.08;2.58;;;;;;;-7.98;62.94;95608.00;6267524;28;20045;-68
2023/12/30 05:58:18;;;;;;;2.70;2.20;;;;;;;-8.08;62.96;95624.31;6267584;28;20057;-67
2023/12/30 06:01:20;;;;;;;2.97;2.60;;;;;;;-8.01;62.77;95621.69;6267360;28;20053;-66
2023/12/30 06:04:25;;;;;;;2.03;1.20;;;;;;;-8.03;62.78;95628.50;6266952;28;20532;-68
2023/12/30 06:07:30;;;;;;;1.90;1.75;;;;;;;-8.07;62.69;95628.53;6267743;28;20044;-68
2023/12/30 06:10:34;;;;;;;2.53;1.90;;;;;;;-7.99;63.29;95644.63;6267839;28;20126;-68
2023/12/30 06:13:40;;;;;;;4.03;2.35;;;;;;;-8.00;63.69;95648.03;6266769;28;20044;-67
2023/12/30 06:16:45;;;;;;;2.22;2.03;;;;;;;-7.85;62.93;95636.78;6271894;28;20151;-67
2023/12/30 06:19:51;;;;;;;3.05;2.60;;;;;;;-7.79;63.29;95646.91;6272318;28;20410;-67
2023/12/30 06:22:53;;;;;;;1.75;1.65;;;;;;;-7.74;62.96;95646.00;6271900;28;20132;-68
2023/12/30 06:25:55;;;;;;;2.13;1.38;;;;;;;-7.64;62.81;95645.84;6271501;28;20056;-67
2023/12/30 06:28:58;;;;;;;2.10;1.48;;;;;;;-7.54;62.61;95637.22;6271141;28;20041;-67
2023/12/30 06:32:00;;;;;;;2.58;2.28;;;;;;;-7.37;63.14;95644.63;6271738;28;20056;-68
2023/12/30 06:35:03;;;;;;;2.72;1.95;;;;;;;-7.19;61.92;95648.63;6272008;28;20032;-67
2023/12/30 06:38:05;;;;;;;4.50;2.50;;;;;;;-7.21;62.84;95638.44;6271979;28;20032;-68
2023/12/30 06:41:07;;;;;;;3.20;2.22;;;;;;;-6.98;62.46;95643.19;6271066;28;20049;-68
2023/12/30 06:44:08;;;;;;;4.90;2.45;;;;;;;-7.01;62.15;95630.44;6252489;28;20532;-66
2023/12/30 06:47:12;;;;;;;2.10;1.90;;;;;;;-6.83;61.58;95631.84;6271697;28;20044;-69
2023/12/30 06:50:15;;;;;;;1.85;1.65;;;;;;;-6.89;61.40;95631.94;6270880;28;20049;-67
2023/12/30 06:53:20;;;;;;;2.72;1.50;;;;;;;-6.97;62.29;95629.50;6260162;28;20124;-67
2023/12/30 06:56:22;;;;;;;3.90;2.40;;;;;;;-6.88;61.93;95629.38;6246384;28;20045;-68
2023/12/30 06:59:23;;;;;;;2.00;1.77;;;;;;;-6.65;60.86;95635.78;6246801;28;20391;-71
2023/12/30 07:02:25;;;;;;;2.88;2.10;;;;;;;-6.77;61.52;95637.69;6246689;28;20045;-68
2023/12/30 07:05:26;;;;;;;1.67;1.52;;;;;;;-6.58;60.53;95627.97;6246448;28;20037;-68
2023/12/30 07:08:28;;;;;;;1.90;1.35;;;;;;;-6.53;60.51;95638.13;6246245;28;20128;-68
2023/12/30 07:11:32;;;;;;;1.60;1.40;;;;;;;-6.19;60.82;95624.72;6246474;28;20120;-67
2023/12/30 07:14:38;;;;;;;2.22;1.58;;;;;;;-6.02;59.88;95632.91;6227826;28;20144;-67
2023/12/30 07:17:41;;;;;;;2.38;1.70;;;;;;;-5.76;58.72;95629.75;6245965;28;20037;-68
2023/12/30 07:20:45;;;;;;;2.08;1.50;;;;;;;-5.86;58.85;95628.25;6228550;28;20049;-68
2023/12/30 07:23:49;;;;;;;1.67;1.58;;;;;;;-4.30;58.20;95609.16;6245901;28;20399;-67
2023/12/30 07:26:53;;;;;;;3.40;1.55;;;;;;;-0.85;52.47;95613.91;6228078;28;20044;-67
2023/12/30 07:29:54;;;;;;;1.52;1.33;;;;;;;1.39;47.43;95622.09;6245764;28;20037;-68
2023/12/30 07:33:02;;;;;;;2.00;1.58;;;;;;;3.10;44.64;95623.56;6245587;28;20041;-68
2023/12/30 07:36:06;;;;;;;2.03;1.20;;;;;;;4.44;42.92;95627.09;6244623;28;20046;-68
2023/12/30 07:39:07;;;;;;;1.10;1.00;;;;;;;5.29;40.50;95609.63;6245704;28;20042;-69
2023/12/30 07:42:12;;;;;;;1.65;1.20;;;;;;;5.69;40.22;95617.53;6227332;28;20056;-69
2023/12/30 07:45:18;;;;;;;2.25;0.90;;;;;;;6.21;38.76;95611.47;6245639;28;20461;-68
2023/12/30 07:48:23;;;;;;;1.48;0.98;;;;;;;6.43;37.79;95604.78;6245563;28;20061;-69
2023/12/30 07:51:24;;;;;;;1.10;1.00;;;;;;;7.02;37.54;95615.47;6245111;28;20052;-67
2023/12/30 07:54:26;;;;;;;0.85;0.70;;;;;;;7.41;36.62;95610.91;6245083;28;20551;-67
2023/12/30 07:57:29;;;;;;;0.88;0.80;;;;;;;7.53;35.23;95615.28;6244110;28;20056;-69
2023/12/30 08:00:31;;;;;;;2.45;1.08;;;;;;;7.63;34.86;95613.66;6244803;28;20049;-68
2023/12/30 08:03:35;;;;;;;1.65;1.20;;;;;;;7.31;34.06;95609.94;6244659;28;20529;-68
2023/12/30 08:06:39;;;;;;;1.10;0.95;;;;;;;7.35;35.12;95609.56;6244488;28;20049;-68
2023/12/30 08:09:43;;;;;;;1.50;1.02;;;;;;;7.17;34.21;95614.38;6244754;28;20133;-67
2023/12/30 08:12:48;;;;;;;1.20;1.10;;;;;;;6.97;35.32;95628.03;6244638;28;20052;-67
2023/12/30 08:15:50;;;;;;;2.65;1.13;;;;;;;6.91;34.29;95616.22;6243978;28;20134;-68
2023/12/30 08:18:53;;;;;;;1.65;1.27;;;;;;;7.85;34.47;95630.41;6244311;28;20049;-68
2023/12/30 08:22:00;;;;;;;0.88;0.88;;;;;;;7.90;32.82;95596.00;6244465;28;20045;-68
2023/12/30 08:25:08;;;;;;;1.10;1.00;;;;;;;7.18;33.62;95608.19;6243753;28;20053;-68
2023/12/30 08:28:12;;;;;;;1.30;1.00;;;;;;;6.92;33.82;95593.50;6244632;28;20144;-69
2023/12/30 08:31:19;;;;;;;1.70;1.20;;;;;;;6.79;34.13;95613.59;6244669;28;20514;-67
2023/12/30 08:34:27;;;;;;;1.83;1.50;;;;;;;5.95;33.26;95623.66;6244521;28;20041;-67
2023/12/30 08:37:29;;;;;;;2.15;1.48;;;;;;;4.17;36.06;95598.34;6242471;28;20053;-67
2023/12/30 08:40:35;;;;;;;1.75;1.30;;;;;;;3.86;36.69;95607.13;6244557;28;20431;-70
2023/12/30 08:43:36;;;;;;;1.65;1.17;;;;;;;3.47;36.40;95608.50;6243395;28;20060;-68
2023/12/30 08:46:41;;;;;;;2.85;1.80;;;;;;;3.67;36.94;95609.13;6244295;28;20045;-69
2023/12/30 08:49:44;;;;;;;2.58;1.90;;;;;;;4.66;35.31;95603.16;6244043;28;20037;-67
2023/12/30 08:52:48;;;;;;;1.38;1.27;;;;;;;5.81;33.59;95614.09;6251050;28;20135;-68
2023/12/30 08:55:55;;;;;;;3.28;2.22;;;;;;;6.67;34.18;95604.84;6267877;28;20071;-68
2023/12/30 08:59:01;;;;;;;2.58;2.15;;;;;;;7.99;32.92;95611.06;6268846;28;20529;-68
2023/12/30 09:02:06;;;;;;;3.47;2.20;;;;;;;8.35;32.98;95602.22;6268858;28;20131;-69
2023/12/30 09:05:07;;;;;;;4.60;2.22;;;;;;;8.81;32.09;95614.41;6267362;28;20048;-68
2023/12/30 09:08:11;;;;;;;4.00;2.15;;;;;;;9.01;31.20;95609.41;6268118;28;20040;-69
2023/12/30 09:11:22;;;;;;;4.22;2.67;;;;;;;9.21;29.01;95608.66;6267798;28;20151;-69
2023/12/30 09:14:24;;;;;;;3.42;2.50;;;;;;;9.17;30.11;95599.34;6268074;28;20203;-68
2023/12/30 09:17:26;;;;;;;5.00;2.90;;;;;;;9.32;29.16;95603.38;6267339;28;20854;-68
2023/12/30 09:20:28;;;;;;;4.47;3.15;;;;;;;9.05;29.21;95611.66;6267381;28;20151;-69
2023/12/30 09:23:30;;;;;;;2.97;2.30;;;;;;;9.43;28.92;95605.97;6267629;28;20147;-69
2023/12/30 09:26:36;;;;;;;2.38;1.58;;;;;;;9.16;27.59;95592.44;6267812;28;20045;-69
2023/12/30 09:29:43;;;;;;;2.47;2.00;;;;;;;8.78;28.03;95593.69;6268266;28;20048;-68
2023/12/30 09:32:45;;;;;;;;;;;;;;;8.98;27.66;95611.31;6251396;28;20183;-68
2023/12/30 09:35:54;;;;;;;2.50;1.90;;;;;;;9.06;27.64;95604.59;6268342;28;19921;-70
2023/12/30 09:38:55;;;;;;;1.13;1.00;;;;;;;8.82;26.73;95591.63;6267114;28;20052;-70
2023/12/30 09:41:57;;;;;;;2.50;1.70;;;;;;;8.67;27.35;95606.78;6268052;28;20044;-70
2023/12/30 09:44:59;;;;;;;2.40;1.70;;;;;;;8.39;27.00;95593.19;6267761;28;20056;-67
2023/12/30 09:48:06;;;;;;;2.65;1.90;;;;;;;7.68;26.94;95622.97;6269239;28;20057;-67
2023/12/30 09:51:13;;;;;;;2.17;1.65;;;;;;;7.28;28.12;95618.84;6272931;28;20044;-68
2023/12/30 09:54:16;;;;;;;1.88;1.55;;;;;;;7.01;27.62;95629.47;6252607;28;20049;-68
2023/12/30 09:57:17;;;;;;;3.13;2.35;;;;;;;6.73;28.17;95634.00;6247910;28;20522;-68
2023/12/30 10:00:25;;;;;;;4.50;2.55;;;;;;;6.96;28.55;95647.25;6230578;28;20045;-67
2023/12/30 10:03:34;;;;;;;2.88;1.80;;;;;;;7.34;28.14;95657.63;6247911;28;20037;-69
2023/12/30 10:06:42;;;;;;;3.88;2.83;;;;;;;6.95;28.06;95656.06;6248220;28;20045;-69
2023/12/30 10:09:45;;;;;;;4.72;2.92;;;;;;;6.69;28.43;95658.69;6247742;28;20044;-68
2023/12/30 10:12:52;;;;;;;3.35;2.13;;;;;;;5.28;29.86;95660.13;6247976;28;20041;-68
2023/12/30 10:15:58;;;;;;;3.58;2.60;;;;;;;2.38;33.82;95663.81;6247137;28;20057;-67
2023/12/30 10:19:00;;;;;;;;;;;;;;;0.53;35.83;95659.78;6247195;28;20335;-68
2023/12/30 10:22:04;;;;;;;3.30;2.65;;;;;;;-1.13;39.42;95671.81;6247420;28;19921;-67
2023/12/30 10:25:07;;;;;;;3.47;2.53;;;;;;;-2.01;41.03;95671.56;6246782;28;20041;-68
2023/12/30 10:28:17;;;;;;;2.55;2.30;;;;;;;-2.71;42.54;95675.59;6247204;28;20049;-68
2023/12/30 10:31:22;;;;;;;4.90;2.70;;;;;;;-2.98;42.88;95671.31;6246798;28;20084;-67
2023/12/30 10:34:28;;;;;;;2.95;2.22;;;;;;;-3.29;43.48;95677.38;6247233;28;20045;-68
2023/12/30 10:37:29;;;;;;;6.28;2.70;;;;;;;-3.50;43.92;95683.19;6246154;28;20373;-67
2023/12/30 10:40:40;;;;;;;4.50;2.97;;;;;;;-3.85;44.33;95677.28;6229469;28;20124;-67
2023/12/30 10:43:45;;;;;;;5.95;3.17;;;;;;;-3.98;44.67;95679.38;6247449;28;20434;-67
2023/12/30 10:46:52;;;;;;;4.38;2.90;;;;;;;-4.12;44.89;95679.72;6246960;28;20517;-68
2023/12/30 10:50:04;;;;;;;4.07;2.78;;;;;;;-4.22;45.10;95683.41;6246276;28;20041;-68
2023/12/30 10:53:10;;;;;;;5.82;3.05;;;;;;;-4.51;45.88;95682.44;6255597;28;20126;-69
2023/12/30 10:56:22;;;;;;;4.32;2.85;;;;;;;-4.54;46.01;95692.78;6270504;28;20403;-68
2023/12/30 10:59:31;;;;;;;3.83;2.83;;;;;;;-4.76;46.72;95697.59;6270720;28;20132;-68
2023/12/30 11:02:37;;;;;;;5.50;3.33;;;;;;;-4.91;47.12;95697.13;6271298;28;20129;-67
2023/12/30 11:06:16;;;;;;;3.78;2.55;;;;;;;-5.01;47.34;95710.16;6271332;28;20525;-68
2023/12/30 11:09:22;;;;;;;3.63;2.92;;;;;;;-5.20;47.60;95706.31;6270990;28;20087;-68
2023/12/30 11:12:27;;;;;;;4.72;3.03;;;;;;;-5.40;47.62;95716.16;6270524;28;20421;-68
2023/12/30 11:15:34;;;;;;;5.57;2.65;;;;;;;-5.53;48.54;95729.22;6271119;28;20045;-68
2023/12/30 11:18:51;;;;;;;5.20;2.97;;;;;;;-5.73;49.45;95727.06;6270678;28;20045;-68
2023/12/30 11:22:01;;;;;;;5.75;3.80;;;;;;;-5.93;49.81;95735.13;6270854;28;20049;-67
2023/12/30 11:25:04;;;;;;;7.00;3.50;;;;;;;-6.04;50.03;95737.06;6270404;28;20425;-68
2023/12/30 11:28:12;;;;;;;4.00;2.78;;;;;;;-6.20;50.56;95730.53;6271121;28;20067;-68
2023/12/30 11:31:15;;;;;;;8.57;3.75;;;;;;;-6.35;50.40;95736.78;6270690;28;20418;-68
2023/12/30 11:34:17;;;;;;;4.97;3.35;;;;;;;-6.40;50.97;95738.56;6269408;28;20518;-68
2023/12/30 11:37:22;;;;;;;7.45;4.32;;;;;;;-6.64;51.03;95739.81;6270628;28;20033;-67
2023/12/30 11:40:28;;;;;;;8.02;4.72;;;;;;;-6.95;52.45;95735.19;6269970;28;20041;-68
2023/12/30 11:43:31;;;;;;;6.65;4.03;;;;;;;-6.97;52.24;95742.00;6269997;28;20135;-67
2023/12/30 11:46:32;;;;;;;5.13;3.97;;;;;;;-7.07;52.65;95737.91;6269325;28;20064;-67
2023/12/30 11:49:35;;;;;;;4.07;3.35;;;;;;;-7.17;52.87;95742.31;6252485;28;20049;-68
2023/12/30 11:52:46;;;;;;;8.88;3.85;;;;;;;-7.30;53.27;95744.19;6264107;28;20041;-67
2023/12/30 11:55:48;;;;;;;4.30;3.35;;;;;;;-7.38;52.82;95745.16;6245245;28;20137;-68
2023/12/30 11:58:53;;;;;;;6.43;3.55;;;;;;;-7.49;53.40;95743.59;6245554;28;20048;-68
2023/12/30 12:02:06;;;;;;;4.25;3.13;;;;;;;-7.43;53.90;95741.81;6245217;28;20045;-68
2023/12/30 12:05:12;;;;;;;6.60;3.70;;;;;;;-7.58;53.91;95751.38;6245337;28;20052;-68
2023/12/30 12:08:13;;;;;;;7.10;4.05;;;;;;;-7.63;54.34;95762.50;6245225;28;20056;-67
2023/12/30 12:11:17;;;;;;;3.63;3.05;;;;;;;-7.67;53.84;95774.47;6244355;28;20049;-68
2023/12/30 12:14:21;;;;;;;3.75;3.10;;;;;;;-7.73;54.51;95767.72;6244797;28;20506;-69
2023/12/30 12:17:23;;;;;;;4.50;3.00;;;;;;;-7.61;54.54;95774.41;6244918;28;20053;-68
2023/12/30 12:20:35;;;;;;;8.00;3.10;;;;;;;-7.47;54.20;95769.13;6244822;28;20041;-68
2023/12/30 12:23:39;;;;;;;3.85;2.63;;;;;;;-7.53;54.13;95781.94;6244671;28;20408;-67
2023/12/30 12:26:41;;;;;;;10.82;5.35;;;;;;;-7.59;54.35;95789.69;6244626;28;20057;-68
2023/12/30 12:29:48;;;;;;;19.00;11.35;;;;;;;-7.62;55.18;95793.13;6244518;28;20374;-67
2023/12/30 12:32:56;;;;;;;8.85;5.30;;;;;;;-7.61;54.99;95793.97;6244770;28;20437;-67
2023/12/30 12:35:59;;;;;;;6.90;3.53;;;;;;;-7.68;55.46;95798.31;6244211;28;20052;-67
2023/12/30 12:39:05;;;;;;;6.57;3.88;;;;;;;-7.72;55.37;95802.59;6244653;28;20052;-68
2023/12/30 12:42:14;;;;;;;4.32;2.63;;;;;;;-7.45;55.58;95805.69;6244478;28;20045;-68
2023/12/30 12:45:15;;;;;;;7.30;3.35;;;;;;;-7.56;55.54;95797.31;6244273;28;20090;-68
2023/12/30 12:48:19;;;;;;;6.05;3.42;;;;;;;-7.62;55.32;95797.38;6244428;28;20533;-68
2023/12/30 12:51:23;;;;;;;6.13;3.58;;;;;;;-7.72;55.90;95784.72;6244128;28;20498;-67
2023/12/30 12:54:29;;;;;;;4.78;3.28;;;;;;;-7.72;55.32;95800.06;6243728;28;20058;-67
2023/12/30 12:57:36;;;;;;;5.80;2.95;;;;;;;-7.69;55.45;95805.13;6244252;28;20529;-68
2023/12/30 13:00:42;;;;;;;8.43;5.47;;;;;;;-7.74;55.73;95804.31;6244205;28;20197;-67
2023/12/30 13:03:43;;;;;;;5.13;3.40;;;;;;;-7.88;56.41;95806.19;6243648;28;20057;-68
2023/12/30 13:06:48;;;;;;;6.85;4.10;;;;;;;-7.90;56.09;95802.78;6243997;28;20046;-68
2023/12/30 13:09:53;;;;;;;6.47;4.13;;;;;;;-7.87;56.02;95812.13;6244142;28;20049;-67
2023/12/30 13:12:55;;;;;;;7.57;4.35;;;;;;;-7.94;56.91;95819.00;6243825;28;20041;-68
2023/12/30 13:16:02;;;;;;;3.75;2.90;;;;;;;-7.92;56.13;95819.84;6243919;28;20419;-68
2023/12/30 13:19:08;;;;;;;6.63;4.25;;;;;;;-7.85;56.71;95829.13;6243813;28;20045;-68
2023/12/30 13:22:11;;;;;;;6.30;3.25;;;;;;;-7.98;56.61;95825.00;6243283;28;20530;-68
2023/12/30 13:25:13;;;;;;;7.35;4.00;;;;;;;-8.02;57.14;95823.34;6248201;28;20191;-67
2023/12/30 13:28:14;;;;;;;8.23;4.93;;;;;;;-8.01;56.92;95822.47;6248929;28;20419;-69
2023/12/30 13:31:24;;;;;;;6.18;3.22;;;;;;;-7.93;57.37;95826.63;6248866;28;20045;-68
2023/12/30 13:34:31;;;;;;;8.27;4.35;;;;;;;-7.90;57.31;95815.56;6231596;28;20046;-66
2023/12/30 13:37:39;;;;;;;4.35;3.17;;;;;;;-7.77;57.55;95814.56;6248446;28;20207;-68
2023/12/30 13:40:42;;;;;;;8.55;4.60;;;;;;;-7.70;57.89;95825.56;6248486;28;20041;-67
2023/12/30 13:43:46;;;;;;;7.45;4.20;;;;;;;-7.65;57.54;95812.75;6247830;28;20057;-68
2023/12/30 13:53:02;;;;;;;9.80;5.43;;;;;;;-7.59;57.98;95812.69;6248100;28;20045;-68
2023/12/30 13:56:05;;;;;;;5.32;2.70;;;;;;;-7.54;57.81;95805.81;6247599;28;20052;-68
2023/12/30 13:59:11;;;;;;;5.15;3.20;;;;;;;-7.54;58.00;95814.31;6248537;28;20658;-70
2023/12/30 14:02:17;;;;;;;5.35;3.20;;;;;;;-7.44;57.76;95802.31;6247365;28;20839;-68
2023/12/30 14:05:32;;;;;;;3.90;2.10;;;;;;;-7.43;57.90;95788.66;6247374;28;20045;-68
2023/12/30 14:08:44;;;;;;;1.95;1.63;;;;;;;-7.35;58.14;95786.00;6229868;28;20041;-68
2023/12/30 14:11:55;;;;;;;6.32;3.50;;;;;;;-7.52;58.39;95804.09;6246856;28;20041;-68
2023/12/30 14:15:06;;;;;;;4.13;2.58;;;;;;;-7.55;58.94;95804.13;6248109;28;20580;-68
2023/12/30 14:18:10;;;;;;;3.78;2.42;;;;;;;-7.60;58.63;95808.44;6247869;28;20044;-69
2023/12/30 14:21:12;;;;;;;3.45;2.63;;;;;;;-7.57;58.97;95816.91;6247020;28;20048;-67
2023/12/30 14:24:19;;;;;;;3.20;2.20;;;;;;;-7.65;59.38;95812.75;6247169;28;20041;-68
2023/12/30 14:27:23;;;;;;;3.95;2.60;;;;;;;-7.68;59.60;95819.59;6247277;28;20128;-67
2023/12/30 14:30:32;;;;;;;7.38;3.95;;;;;;;-7.81;59.66;95806.94;6247565;28;20068;-68
2023/12/30 14:33:35;;;;;;;9.60;4.97;;;;;;;-7.92;59.88;95815.59;6246907;28;20135;-67
2023/12/30 14:36:40;;;;;;;6.80;4.60;;;;;;;-7.98;60.15;95820.75;6245963;28;20049;-67
2023/12/30 14:39:41;;;;;;;8.18;4.28;;;;;;;-7.89;60.72;95824.94;6246305;28;20529;-68